createdAt,value
2023-04-01T00:04:49.027Z,9.60
2023-04-01T00:09:52.704Z,9.60
2023-04-01T00:14:55.854Z,9.50
2023-04-01T00:19:59.338Z,9.38
2023-04-01T00:25:03.184Z,9.30
2023-04-01T00:30:07.493Z,9.30
2023-04-01T00:35:12.041Z,9.20
2023-04-01T00:40:47.650Z,9.20
2023-04-01T00:45:51.632Z,9.20
2023-04-01T00:51:12.748Z,9.20
2023-04-01T00:56:28.010Z,9.20
2023-04-01T01:01:33.389Z,9.20
2023-04-01T01:06:49.126Z,9.10
2023-04-01T01:12:38.963Z,9.00
2023-04-01T01:18:05.253Z,9.00
2023-04-01T01:23:23.514Z,9.00
2023-04-01T01:29:13.440Z,9.00
2023-04-01T01:34:34.033Z,9.10
2023-04-01T01:39:38.587Z,9.10
2023-04-01T01:44:46.890Z,9.00
2023-04-01T01:49:53.158Z,8.90
2023-04-01T01:54:59.011Z,8.80
2023-04-01T02:00:15.654Z,8.86
2023-04-01T02:05:25.767Z,8.90
2023-04-01T02:10:35.132Z,8.94
2023-04-01T02:15:47.384Z,9.00
2023-04-01T02:20:52.192Z,8.92
2023-04-01T02:25:56.308Z,8.90
2023-04-01T02:31:03.664Z,8.90
2023-04-01T02:36:13.232Z,8.80
2023-04-01T02:41:16.395Z,8.80
2023-04-01T02:46:19.567Z,8.86
2023-04-01T02:51:22.888Z,8.90
2023-04-01T02:56:27.324Z,8.90
2023-04-01T03:01:30.460Z,8.90
2023-04-01T03:06:33.744Z,8.88
2023-04-01T03:11:36.854Z,8.80
2023-04-01T03:16:40.023Z,8.70
2023-04-01T03:21:43.267Z,8.70
2023-04-01T03:26:46.629Z,8.70
2023-04-01T03:31:49.886Z,8.70
2023-04-01T03:36:53.919Z,8.70
2023-04-01T03:41:56.930Z,8.70
2023-04-01T03:47:00.574Z,8.70
2023-04-01T03:52:04.054Z,8.60
2023-04-01T03:57:07.506Z,8.60
2023-04-01T04:02:11.028Z,8.60
2023-04-01T04:07:14.651Z,8.50
2023-04-01T04:12:17.710Z,8.44
2023-04-01T04:17:20.724Z,8.50
2023-04-01T04:22:24.028Z,8.50
2023-04-01T04:27:27.132Z,8.50
2023-04-01T04:32:31.910Z,8.50
2023-04-01T04:37:34.986Z,8.50
2023-04-01T04:42:37.993Z,8.40
2023-04-01T04:47:41.313Z,8.38
2023-04-01T04:52:44.453Z,8.36
2023-04-01T04:57:47.612Z,8.40
2023-04-01T05:02:50.773Z,8.40
2023-04-01T05:07:54.026Z,8.40
2023-04-01T05:12:57.268Z,8.40
2023-04-01T05:18:00.411Z,8.42
2023-04-01T05:23:03.997Z,8.44
2023-04-01T05:28:07.076Z,8.50
2023-04-01T05:33:12.302Z,8.42
2023-04-01T05:38:16.046Z,8.40
2023-04-01T05:43:19.063Z,8.40
2023-04-01T05:48:22.464Z,8.40
2023-04-01T05:53:25.571Z,8.40
2023-04-01T05:58:28.685Z,8.40
2023-04-01T06:03:32.259Z,8.40
2023-04-01T06:08:35.523Z,8.40
2023-04-01T06:13:54.131Z,8.40
2023-04-01T06:19:18.580Z,8.38
2023-04-01T06:24:43.502Z,8.30
2023-04-01T06:30:23.675Z,8.30
2023-04-01T06:35:39.959Z,8.32
2023-04-01T06:41:21.502Z,8.30
2023-04-01T06:47:00.416Z,8.30
2023-04-01T06:52:48.828Z,8.20
2023-04-01T06:57:56.629Z,8.18
2023-04-01T07:03:30.433Z,8.10
2023-04-01T07:08:41.682Z,8.00
2023-04-01T07:13:56.020Z,8.00
2023-04-01T07:19:43.260Z,8.00
2023-04-01T07:24:47.854Z,8.00
2023-04-01T07:29:50.911Z,8.04
2023-04-01T07:35:24.227Z,8.06
2023-04-01T07:40:51.628Z,8.10
2023-04-01T07:46:36.517Z,8.10
2023-04-01T07:51:44.711Z,8.10
2023-04-01T07:57:21.961Z,8.10
2023-04-01T08:02:49.663Z,8.10
2023-04-01T08:08:20.990Z,8.10
2023-04-01T08:14:01.453Z,8.20
2023-04-01T08:20:01.400Z,8.20
2023-04-01T08:25:15.198Z,8.10
2023-04-01T08:30:28.310Z,8.20
2023-04-01T08:35:45.227Z,8.10
2023-04-01T08:41:51.311Z,8.16
2023-04-01T08:47:42.308Z,8.30
2023-04-01T08:53:13.822Z,8.30
2023-04-01T08:58:47.937Z,8.48
2023-04-01T09:04:18.133Z,8.60
2023-04-01T09:09:49.342Z,8.70
2023-04-01T09:15:42.169Z,8.94
2023-04-01T09:21:03.977Z,9.20
2023-04-01T09:26:25.206Z,9.28
2023-04-01T09:31:46.349Z,9.20
2023-04-01T09:37:08.097Z,9.20
2023-04-01T09:42:14.153Z,9.20
2023-04-01T09:47:48.318Z,9.10
2023-04-01T09:53:15.880Z,8.90
2023-04-01T09:58:43.709Z,8.80
2023-04-01T10:04:31.392Z,8.70
2023-04-01T10:10:24.266Z,8.66
2023-04-01T10:15:45.898Z,8.60
2023-04-01T10:21:16.155Z,8.60
2023-04-01T10:27:06.869Z,8.70
2023-04-01T10:32:47.180Z,8.70
2023-04-01T10:38:41.867Z,8.70
2023-04-01T10:44:09.442Z,8.76
2023-04-01T10:49:33.845Z,8.80
2023-04-01T10:55:05.848Z,8.80
2023-04-01T11:01:00.427Z,8.84
2023-04-01T11:06:50.663Z,8.80
2023-04-01T11:12:41.787Z,8.80
2023-04-01T11:18:29.437Z,8.80
2023-04-01T11:24:06.243Z,8.86
2023-04-01T11:29:58.866Z,8.88
2023-04-01T11:35:44.135Z,8.90
2023-04-01T11:41:12.103Z,9.00
2023-04-01T11:46:34.930Z,9.10
2023-04-01T11:52:02.533Z,9.00
2023-04-01T11:57:54.018Z,8.90
2023-04-01T12:03:38.236Z,8.80
2023-04-01T12:09:21.191Z,8.80
2023-04-01T12:14:48.878Z,8.70
2023-04-01T12:19:58.224Z,8.60
2023-04-01T12:25:40.052Z,8.60
2023-04-01T12:31:16.728Z,8.70
2023-04-01T12:36:53.425Z,8.70
2023-04-01T12:42:23.872Z,8.70
2023-04-01T12:47:49.311Z,8.80
2023-04-01T12:53:30.707Z,8.80
2023-04-01T12:59:08.741Z,8.80
2023-04-01T13:04:46.461Z,8.70
2023-04-01T13:10:15.052Z,8.70
2023-04-01T13:15:57.227Z,8.70
2023-04-01T13:21:28.540Z,8.62
2023-04-01T13:26:55.117Z,8.70
2023-04-01T13:32:13.571Z,8.60
2023-04-01T13:37:50.885Z,8.60
2023-04-01T13:43:41.136Z,8.60
2023-04-01T13:49:08.977Z,8.60
2023-04-01T13:54:55.590Z,8.40
2023-04-01T14:00:12.527Z,8.20
2023-04-01T14:05:46.456Z,8.10
2023-04-01T14:11:21.341Z,8.02
2023-04-01T14:16:53.085Z,8.00
2023-04-01T14:22:33.881Z,8.00
2023-04-01T14:28:11.812Z,7.90
2023-04-01T14:33:51.969Z,7.80
2023-04-01T14:39:29.177Z,7.60
2023-04-01T14:45:07.516Z,7.52
2023-04-01T14:50:19.491Z,7.50
2023-04-01T14:55:39.629Z,7.40
2023-04-01T15:01:04.251Z,7.32
2023-04-01T15:07:08.586Z,7.22
2023-04-01T15:13:19.901Z,7.10
2023-04-01T15:19:14.708Z,7.10
2023-04-01T15:24:28.202Z,7.00
2023-04-01T15:30:06.083Z,7.00
2023-04-01T15:35:27.320Z,6.90
2023-04-01T15:41:05.249Z,6.90
2023-04-01T15:46:49.025Z,6.80
2023-04-01T15:52:16.068Z,6.80
2023-04-01T15:57:53.595Z,6.80
2023-04-01T16:03:53.994Z,6.70
2023-04-01T16:09:17.814Z,6.62
2023-04-01T16:15:01.266Z,6.60
2023-04-01T16:20:19.521Z,6.60
2023-04-01T16:25:48.521Z,6.50
2023-04-01T16:31:28.010Z,6.50
2023-04-01T16:36:52.826Z,6.50
2023-04-01T16:42:26.135Z,6.40
2023-04-01T16:47:47.005Z,6.30
2023-04-01T16:53:12.678Z,6.20
2023-04-01T16:58:28.554Z,6.10
2023-04-01T17:03:45.443Z,6.06
2023-04-01T17:09:32.776Z,6.00
2023-04-01T17:14:59.528Z,6.00
2023-04-01T17:20:28.853Z,5.90
2023-04-01T17:26:35.140Z,5.80
2023-04-01T17:31:47.284Z,5.70
2023-04-01T17:37:24.685Z,5.70
2023-04-01T17:43:03.208Z,5.60
2023-04-01T17:48:34.584Z,5.50
2023-04-01T17:54:06.309Z,5.40
2023-04-01T17:59:19.797Z,5.40
2023-04-01T18:05:08.072Z,5.28
2023-04-01T18:10:41.424Z,5.20
2023-04-01T18:16:03.970Z,5.20
2023-04-01T18:21:25.687Z,5.20
2023-04-01T18:26:38.538Z,5.18
2023-04-01T18:31:54.736Z,5.10
2023-04-01T18:37:20.793Z,5.10
2023-04-01T18:42:49.078Z,5.00
2023-04-01T18:48:06.355Z,4.90
2023-04-01T18:53:37.787Z,4.86
2023-04-01T18:58:59.423Z,4.90
2023-04-01T19:04:24.252Z,4.90
2023-04-01T19:09:47.331Z,4.90
2023-04-01T19:15:24.207Z,4.90
2023-04-01T19:20:58.506Z,4.80
2023-04-01T19:26:15.032Z,4.70
2023-04-01T19:31:41.613Z,4.70
2023-04-01T19:37:03.573Z,4.70
2023-04-01T19:42:28.813Z,4.80
2023-04-01T19:47:37.850Z,4.80
2023-04-01T19:52:44.846Z,4.70
2023-04-01T19:58:02.079Z,4.62
2023-04-01T20:03:27.824Z,4.70
2023-04-01T20:09:05.124Z,4.60
2023-04-01T20:14:37.937Z,4.60
2023-04-01T20:19:53.642Z,4.60
2023-04-01T20:25:11.446Z,4.44
2023-04-01T20:30:38.346Z,4.40
2023-04-01T20:36:13.863Z,4.40
2023-04-01T20:41:46.722Z,4.40
2023-04-01T20:47:03.983Z,4.40
2023-04-01T20:52:50.897Z,4.30
2023-04-01T20:58:12.458Z,4.30
2023-04-01T21:04:00.164Z,4.20
2023-04-01T21:09:47.215Z,4.14
2023-04-01T21:15:21.592Z,4.20
2023-04-01T21:20:37.324Z,4.20
2023-04-01T21:26:26.671Z,4.20
2023-04-01T21:32:25.405Z,4.10
2023-04-01T21:38:05.633Z,4.00
2023-04-01T21:43:39.787Z,4.10
2023-04-01T21:49:06.236Z,4.10
2023-04-01T21:54:36.881Z,4.10
2023-04-01T22:00:17.589Z,4.10
2023-04-01T22:05:38.094Z,4.02
2023-04-01T22:11:18.155Z,4.00
2023-04-01T22:16:55.861Z,4.08
2023-04-01T22:22:47.298Z,4.00
2023-04-01T22:28:07.998Z,4.00
2023-04-01T22:33:34.482Z,3.90
2023-04-01T22:39:15.585Z,3.84
2023-04-01T22:44:38.662Z,3.80
2023-04-01T22:50:26.606Z,3.70
2023-04-01T22:55:35.909Z,3.70
2023-04-01T23:00:55.983Z,3.70
2023-04-01T23:06:03.051Z,3.60
2023-04-01T23:11:11.538Z,3.60
2023-04-01T23:16:15.600Z,3.42
2023-04-01T23:21:44.594Z,3.40
2023-04-01T23:27:36.263Z,3.38
2023-04-01T23:32:39.341Z,3.40
2023-04-01T23:37:42.551Z,3.40
2023-04-01T23:42:45.817Z,3.40
2023-04-01T23:47:51.665Z,3.30
2023-04-01T23:53:05.021Z,3.20
2023-04-01T23:58:08.476Z,3.00
